createdAt,value
2023-05-10T00:02:17.470Z,9.90
2023-05-10T00:07:19.056Z,9.80
2023-05-10T00:12:20.756Z,9.70
2023-05-10T00:17:22.483Z,9.60
2023-05-10T00:22:24.056Z,9.50
2023-05-10T00:27:25.532Z,9.50
2023-05-10T00:32:27.118Z,9.40
2023-05-10T00:37:29.004Z,9.30
2023-05-10T00:42:30.511Z,9.20
2023-05-10T00:47:32.234Z,9.10
2023-05-10T00:52:33.920Z,9.00
2023-05-10T00:57:35.529Z,8.90
2023-05-10T01:02:37.310Z,8.80
2023-05-10T01:07:38.898Z,8.80
2023-05-10T01:12:40.493Z,8.70
2023-05-10T01:17:42.156Z,8.60
2023-05-10T01:22:45.315Z,8.50
2023-05-10T01:27:46.830Z,8.40
2023-05-10T01:32:48.710Z,8.30
2023-05-10T01:37:50.362Z,8.30
2023-05-10T01:42:52.016Z,8.20
2023-05-10T01:47:53.788Z,8.10
2023-05-10T01:52:56.481Z,8.10
2023-05-10T01:57:57.939Z,8.00
2023-05-10T02:02:59.443Z,7.90
2023-05-10T02:08:02.121Z,7.90
2023-05-10T02:13:03.771Z,7.90
2023-05-10T02:18:05.531Z,7.80
2023-05-10T02:23:07.313Z,7.80
2023-05-10T02:28:08.931Z,7.80
2023-05-10T02:33:10.595Z,7.80
2023-05-10T02:38:12.193Z,7.80
2023-05-10T02:43:13.770Z,7.70
2023-05-10T02:48:15.538Z,7.70
2023-05-10T02:53:17.080Z,7.70
2023-05-10T02:58:18.632Z,7.70
2023-05-10T03:03:20.102Z,7.60
2023-05-10T03:08:21.540Z,7.60
2023-05-10T03:13:23.199Z,7.50
2023-05-10T03:18:24.680Z,7.50
2023-05-10T03:23:26.158Z,7.50
2023-05-10T03:28:27.720Z,7.50
2023-05-10T03:33:29.440Z,7.50
2023-05-10T03:38:31.161Z,7.50
2023-05-10T03:43:33.593Z,7.50
2023-05-10T03:48:35.224Z,7.50
2023-05-10T03:53:37.348Z,7.50
2023-05-10T03:58:38.981Z,7.50
2023-05-10T04:03:40.588Z,7.60
2023-05-10T04:08:42.115Z,7.70
2023-05-10T04:13:43.678Z,7.70
2023-05-10T04:18:45.179Z,7.80
2023-05-10T04:23:46.860Z,7.90
2023-05-10T04:28:48.390Z,8.00
2023-05-10T04:33:49.872Z,8.10
2023-05-10T04:38:51.545Z,8.20
2023-05-10T04:43:54.424Z,8.30
2023-05-10T04:48:56.123Z,8.60
2023-05-10T04:54:06.036Z,8.90
2023-05-10T04:59:08.366Z,9.60
2023-05-10T05:04:09.827Z,10.30
2023-05-10T05:09:11.333Z,11.30
2023-05-10T05:14:14.259Z,12.70
2023-05-10T05:19:15.846Z,13.60
2023-05-10T05:24:17.349Z,14.20
2023-05-10T05:29:18.905Z,14.40
2023-05-10T05:34:20.549Z,14.40
2023-05-10T05:39:22.044Z,14.70
2023-05-10T05:44:23.702Z,14.70
2023-05-10T05:49:25.354Z,14.90
2023-05-10T05:54:27.191Z,15.50
2023-05-10T05:59:28.730Z,15.60
2023-05-10T06:04:30.398Z,15.90
2023-05-10T06:09:31.954Z,16.00
2023-05-10T06:14:33.421Z,16.20
2023-05-10T06:19:34.901Z,16.60
2023-05-10T06:24:36.442Z,17.00
2023-05-10T06:29:38.122Z,17.30
2023-05-10T06:34:39.704Z,17.60
2023-05-10T06:39:41.176Z,17.90
2023-05-10T06:44:42.834Z,17.90
2023-05-10T06:49:44.455Z,18.00
2023-05-10T06:54:46.077Z,18.10
2023-05-10T06:59:47.664Z,18.50
2023-05-10T07:04:49.542Z,18.70
2023-05-10T07:09:51.645Z,19.00
2023-05-10T07:14:54.401Z,19.40
2023-05-10T07:19:57.417Z,19.70
2023-05-10T07:25:00.574Z,19.70
2023-05-10T07:30:04.558Z,19.80
2023-05-10T07:35:06.334Z,20.10
2023-05-10T07:40:07.876Z,20.30
2023-05-10T07:45:09.339Z,20.50
2023-05-10T07:50:12.759Z,20.30
2023-05-10T07:55:34.394Z,19.80
2023-05-10T08:00:41.490Z,20.00
2023-05-10T08:05:46.546Z,20.00
2023-05-10T08:10:50.810Z,20.40
2023-05-10T08:15:52.285Z,20.50
2023-05-10T08:20:53.806Z,20.80
2023-05-10T08:25:55.439Z,20.40
2023-05-10T08:30:56.977Z,20.60
2023-05-10T08:35:58.549Z,20.50
2023-05-10T08:41:00.193Z,20.60
2023-05-10T08:46:02.153Z,20.80
2023-05-10T08:51:03.625Z,21.20
2023-05-10T08:56:05.662Z,21.00
2023-05-10T09:01:07.293Z,20.80
2023-05-10T09:06:27.455Z,21.00
2023-05-10T09:11:59.518Z,21.00
2023-05-10T09:17:01.112Z,21.00
2023-05-10T09:22:02.641Z,21.20
2023-05-10T09:27:04.172Z,21.10
2023-05-10T09:32:05.839Z,21.00
2023-05-10T09:37:07.586Z,21.00
2023-05-10T09:42:09.315Z,20.80
2023-05-10T09:47:10.763Z,20.90
2023-05-10T09:52:12.544Z,21.10
2023-05-10T09:57:49.665Z,21.00
2023-05-10T10:03:30.356Z,21.10
2023-05-10T10:08:50.263Z,21.20
2023-05-10T10:14:10.592Z,21.20
2023-05-10T10:19:48.136Z,21.30
2023-05-10T10:25:08.333Z,21.00
2023-05-10T10:30:28.462Z,21.00
2023-05-10T10:35:57.403Z,21.10
2023-05-10T10:41:17.482Z,20.90
2023-05-10T10:46:37.543Z,21.00
2023-05-10T10:51:57.807Z,21.10
2023-05-10T10:57:17.663Z,21.30
2023-05-10T11:02:37.897Z,21.50
2023-05-10T11:07:39.762Z,21.50
2023-05-10T11:12:41.461Z,21.30
2023-05-10T11:17:42.946Z,21.10
2023-05-10T11:22:44.474Z,21.10
2023-05-10T11:27:46.019Z,21.10
2023-05-10T11:32:47.549Z,21.10
2023-05-10T11:37:49.083Z,21.00
2023-05-10T11:42:51.543Z,20.90
2023-05-10T11:47:53.177Z,20.80
2023-05-10T11:52:54.728Z,20.80
2023-05-10T11:57:56.363Z,21.10
2023-05-10T12:02:57.944Z,21.30
2023-05-10T12:08:18.643Z,21.10
2023-05-10T12:13:21.540Z,21.10
2023-05-10T12:18:25.558Z,21.30
2023-05-10T12:23:27.256Z,21.40
2023-05-10T12:28:28.880Z,21.40
2023-05-10T12:33:30.594Z,21.50
2023-05-10T12:38:32.153Z,21.30
2023-05-10T12:43:33.589Z,21.40
2023-05-10T12:48:35.894Z,21.50
2023-05-10T12:53:42.737Z,21.40
2023-05-10T12:59:04.401Z,21.40
2023-05-10T13:04:08.349Z,21.20
2023-05-10T13:09:36.322Z,21.20
2023-05-10T13:14:56.273Z,21.10
2023-05-10T13:20:16.686Z,21.30
2023-05-10T13:25:19.553Z,21.40
2023-05-10T13:30:39.632Z,21.40
2023-05-10T13:35:59.957Z,21.30
2023-05-10T13:41:20.089Z,21.10
2023-05-10T13:46:40.472Z,21.20
2023-05-10T13:52:00.562Z,21.20
2023-05-10T13:57:20.615Z,21.20
2023-05-10T14:02:40.798Z,21.20
2023-05-10T14:08:03.375Z,21.30
2023-05-10T14:13:23.385Z,21.20
2023-05-10T14:18:43.697Z,21.10
2023-05-10T14:23:45.555Z,21.20
2023-05-10T14:28:47.234Z,21.10
2023-05-10T14:33:48.843Z,21.10
2023-05-10T14:38:56.923Z,21.30
2023-05-10T14:44:01.651Z,21.30
2023-05-10T14:49:03.513Z,21.20
2023-05-10T14:54:05.334Z,21.10
2023-05-10T14:59:07.023Z,21.00
2023-05-10T15:04:09.297Z,21.10
2023-05-10T15:09:11.399Z,21.00
2023-05-10T15:14:12.997Z,20.90
2023-05-10T15:19:15.761Z,20.90
2023-05-10T15:24:17.642Z,21.10
2023-05-10T15:29:19.142Z,21.10
2023-05-10T15:34:20.860Z,21.10
2023-05-10T15:39:22.539Z,21.20
2023-05-10T15:44:24.349Z,21.10
2023-05-10T15:49:27.343Z,21.20
2023-05-10T15:54:29.191Z,21.30
2023-05-10T15:59:30.772Z,21.10
2023-05-10T16:04:32.274Z,20.80
2023-05-10T16:09:33.910Z,20.50
2023-05-10T16:14:35.486Z,20.30
2023-05-10T16:19:37.199Z,20.20
2023-05-10T16:24:38.887Z,20.20
2023-05-10T16:29:40.587Z,20.20
2023-05-10T16:34:42.154Z,20.50
2023-05-10T16:39:44.096Z,20.60
2023-05-10T16:44:45.813Z,20.30
2023-05-10T16:49:47.466Z,20.00
2023-05-10T16:54:49.155Z,19.90
2023-05-10T16:59:50.807Z,19.80
2023-05-10T17:04:52.495Z,19.80
2023-05-10T17:09:54.018Z,19.60
2023-05-10T17:14:56.047Z,19.70
2023-05-10T17:19:58.410Z,19.70
2023-05-10T17:25:01.466Z,19.60
2023-05-10T17:30:04.296Z,19.50
2023-05-10T17:35:06.049Z,19.40
2023-05-10T17:40:07.656Z,19.30
2023-05-10T17:45:09.242Z,19.10
2023-05-10T17:50:10.829Z,19.00
2023-05-10T17:55:12.469Z,18.90
2023-05-10T18:00:14.062Z,18.80
2023-05-10T18:05:15.957Z,18.70
2023-05-10T18:10:17.848Z,18.60
2023-05-10T18:15:19.625Z,18.50
2023-05-10T18:20:21.228Z,18.40
2023-05-10T18:25:22.993Z,18.30
2023-05-10T18:30:24.548Z,18.20
2023-05-10T18:35:26.757Z,18.10
2023-05-10T18:40:28.337Z,18.00
2023-05-10T18:45:29.998Z,17.90
2023-05-10T18:50:31.682Z,17.80
2023-05-10T18:55:33.351Z,17.70
2023-05-10T19:00:34.945Z,17.60
2023-05-10T19:05:36.580Z,17.50
2023-05-10T19:10:38.260Z,17.30
2023-05-10T19:15:40.078Z,17.20
2023-05-10T19:20:42.517Z,17.10
2023-05-10T19:25:44.816Z,17.00
2023-05-10T19:30:46.582Z,16.90
2023-05-10T19:35:48.215Z,16.80
2023-05-10T19:40:49.761Z,16.70
2023-05-10T19:45:54.271Z,16.50
2023-05-10T19:50:56.241Z,16.30
2023-05-10T19:55:58.327Z,16.10
2023-05-10T20:00:59.924Z,16.00
2023-05-10T20:06:01.766Z,15.80
2023-05-10T20:11:03.274Z,15.60
2023-05-10T20:16:05.014Z,15.40
2023-05-10T20:21:24.962Z,15.30
2023-05-10T20:26:47.048Z,15.30
2023-05-10T20:32:09.616Z,15.20
2023-05-10T20:37:29.922Z,15.10
2023-05-10T20:42:50.211Z,15.10
2023-05-10T20:48:16.452Z,15.00
2023-05-10T20:53:53.444Z,14.90
2023-05-10T20:58:58.300Z,14.90
2023-05-10T21:04:00.458Z,14.80
2023-05-10T21:09:02.809Z,14.80
2023-05-10T21:14:04.348Z,14.80
2023-05-10T21:19:06.886Z,14.90
2023-05-10T21:24:08.602Z,14.80
2023-05-10T21:29:11.432Z,14.90
2023-05-10T21:34:13.138Z,14.80
2023-05-10T21:39:14.802Z,14.80
2023-05-10T21:44:16.380Z,14.90
2023-05-10T21:49:18.092Z,14.90
2023-05-10T21:54:19.863Z,15.00
2023-05-10T21:59:21.672Z,15.00
2023-05-10T22:04:23.207Z,15.00
2023-05-10T22:09:24.732Z,15.00
2023-05-10T22:14:26.631Z,15.00
2023-05-10T22:19:28.110Z,15.00
2023-05-10T22:24:29.734Z,15.00
2023-05-10T22:29:31.310Z,15.00
2023-05-10T22:34:32.912Z,14.90
2023-05-10T22:39:34.481Z,14.90
2023-05-10T22:44:37.133Z,14.80
2023-05-10T22:49:38.618Z,14.70
2023-05-10T22:54:40.185Z,14.70
2023-05-10T22:59:41.733Z,14.70
2023-05-10T23:04:43.217Z,14.60
2023-05-10T23:09:44.870Z,14.60
2023-05-10T23:14:46.673Z,14.60
2023-05-10T23:19:48.213Z,14.50
2023-05-10T23:24:49.785Z,14.50
2023-05-10T23:29:51.262Z,14.50
2023-05-10T23:34:53.308Z,14.50
2023-05-10T23:39:54.918Z,14.40
2023-05-10T23:44:56.469Z,14.40
2023-05-10T23:49:59.042Z,14.20
2023-05-10T23:55:00.563Z,14.20
